Time;durP1;ratioP1;P1;durP2;ratioP2;P2;SDS_P1;SDS_P2;PMS_P1;PMS_P2;Temp;Humidity;BMP_temperature;BMP_pressure;BME280_temperature;BME280_humidity;BME280_pressure;Samples;Min_cycle;Max_cycle;Signal;HPM_P1;HPM_P2
2023/06/21 00:01:30;;;;;;;2.28;1.83;;;23.30;57.80;;;;;;5136282;27;20784;-79
2023/06/21 00:03:59;;;;;;;2.60;1.80;;;23.30;58.50;;;;;;5136066;27;20650;-79
2023/06/21 00:06:28;;;;;;;2.70;1.55;;;23.30;57.80;;;;;;5136240;27;20265;-79
2023/06/21 00:08:57;;;;;;;2.80;1.70;;;23.30;57.80;;;;;;5136430;27;20185;-79
2023/06/21 00:11:24;;;;;;;4.38;1.88;;;23.30;57.90;;;;;;5135628;27;20253;-78
2023/06/21 00:13:54;;;;;;;2.90;1.70;;;23.30;57.90;;;;;;5136067;27;20275;-79
2023/06/21 00:16:21;;;;;;;2.10;1.55;;;23.30;57.90;;;;;;5135953;27;20208;-79
2023/06/21 00:18:48;;;;;;;3.20;1.70;;;23.30;57.90;;;;;;5136157;27;20283;-79
2023/06/21 00:21:15;;;;;;;3.22;1.85;;;23.30;58.00;;;;;;5135850;27;20224;-79
2023/06/21 00:23:44;;;;;;;2.38;1.77;;;23.30;58.00;;;;;;5135760;27;20229;-79
2023/06/21 00:26:12;;;;;;;3.42;1.85;;;23.30;58.00;;;;;;5136052;27;20303;-79
2023/06/21 00:28:39;;;;;;;5.18;2.05;;;23.30;58.00;;;;;;5135624;27;20275;-79
2023/06/21 00:31:08;;;;;;;1.83;1.60;;;23.30;58.10;;;;;;5127513;27;20216;-78
2023/06/21 00:33:35;;;;;;;3.22;1.52;;;23.20;58.00;;;;;;5134355;27;20220;-79
2023/06/21 00:36:02;;;;;;;2.80;1.75;;;23.20;58.00;;;;;;5135365;27;20792;-79
2023/06/21 00:38:34;;;;;;;3.00;1.85;;;23.30;58.10;;;;;;5135769;27;20291;-79
2023/06/21 00:41:03;;;;;;;2.50;1.67;;;23.30;58.20;;;;;;5134433;27;20230;-79
2023/06/21 00:43:31;;;;;;;2.90;1.80;;;23.20;58.20;;;;;;5135283;27;20276;-79
2023/06/21 00:45:58;;;;;;;3.58;1.70;;;23.20;58.20;;;;;;5135574;27;20303;-79
2023/06/21 00:48:28;;;;;;;3.20;1.63;;;23.20;58.20;;;;;;5134635;27;20271;-79
2023/06/21 00:50:55;;;;;;;2.83;1.90;;;23.20;58.20;;;;;;5128238;27;20887;-79
2023/06/21 00:53:23;;;;;;;2.20;1.73;;;23.20;58.20;;;;;;5115214;28;20272;-79
2023/06/21 00:55:50;;;;;;;4.13;1.67;;;23.20;58.20;;;;;;5114455;28;20622;-79
2023/06/21 00:58:20;;;;;;;2.70;1.85;;;23.20;58.30;;;;;;5114745;28;20186;-78
2023/06/21 01:00:49;;;;;;;4.78;1.67;;;23.10;58.10;;;;;;5130340;27;20228;-79
2023/06/21 01:03:17;;;;;;;4.20;2.33;;;23.10;58.10;;;;;;5135087;27;20199;-79
2023/06/21 01:05:52;;;;;;;2.78;1.70;;;23.10;58.10;;;;;;5134934;27;20376;-79
2023/06/21 01:08:28;;;;;;;2.78;1.90;;;23.10;58.10;;;;;;5134878;27;20191;-79
2023/06/21 01:11:04;;;;;;;3.65;2.10;;;23.10;58.10;;;;;;5135492;27;20204;-79
2023/06/21 01:13:42;;;;;;;4.10;2.20;;;23.10;58.10;;;;;;5134088;27;20283;-79
2023/06/21 01:16:14;;;;;;;3.72;2.00;;;23.10;58.10;;;;;;5117819;27;20640;-79
2023/06/21 01:18:45;;;;;;;2.65;1.73;;;23.10;58.10;;;;;;5135075;27;20189;-79
2023/06/21 01:21:16;;;;;;;3.83;1.95;;;23.10;58.10;;;;;;5133584;27;20228;-79
2023/06/21 01:24:03;;;;;;;2.75;2.00;;;23.10;58.10;;;;;;5134664;27;20231;-79
2023/06/21 01:27:03;;;;;;;2.50;1.60;;;23.10;58.10;;;;;;5134938;27;20220;-79
2023/06/21 01:29:34;;;;;;;3.92;1.90;;;23.10;58.10;;;;;;5134688;27;20196;-79
2023/06/21 01:32:01;;;;;;;2.85;1.92;;;23.10;58.10;;;;;;5134354;27;20728;-79
2023/06/21 01:34:30;;;;;;;2.38;1.75;;;23.10;58.10;;;;;;5133342;27;20271;-79
2023/06/21 01:36:58;;;;;;;3.40;1.80;;;23.10;58.20;;;;;;5133885;27;20748;-82
2023/06/21 01:39:27;;;;;;;5.53;2.58;;;23.10;58.10;;;;;;5134421;27;20188;-79
2023/06/21 01:41:54;;;;;;;3.92;1.80;;;23.10;58.10;;;;;;5134153;27;20716;-79
2023/06/21 01:44:22;;;;;;;2.88;1.85;;;23.10;58.10;;;;;;5134350;27;20208;-79
2023/06/21 01:46:52;;;;;;;3.03;1.52;;;23.10;58.10;;;;;;5134228;27;20216;-79
2023/06/21 01:49:19;;;;;;;3.97;2.00;;;23.10;58.20;;;;;;5134356;27;20184;-79
2023/06/21 01:51:47;;;;;;;4.80;1.80;;;23.10;58.10;;;;;;5133107;27;20761;-79
2023/06/21 01:54:16;;;;;;;2.78;1.67;;;23.10;58.10;;;;;;5134310;27;20268;-79
2023/06/21 01:56:45;;;;;;;3.17;1.73;;;23.10;58.10;;;;;;5134121;27;20298;-79
2023/06/21 01:59:12;;;;;;;2.08;1.83;;;23.10;58.10;;;;;;5133814;27;20737;-79
2023/06/21 02:01:42;;;;;;;2.35;1.60;;;23.10;58.10;;;;;;5133835;27;20601;-79
2023/06/21 02:04:11;;;;;;;2.20;1.90;;;23.10;58.10;;;;;;5134101;27;20279;-79
2023/06/21 02:06:40;;;;;;;2.95;2.05;;;23.00;58.10;;;;;;5132819;27;20215;-79
2023/06/21 02:09:09;;;;;;;2.60;1.70;;;23.00;58.10;;;;;;5133848;27;20271;-79
2023/06/21 02:11:37;;;;;;;3.35;1.67;;;23.00;58.10;;;;;;5133895;27;20303;-80
2023/06/21 02:14:03;;;;;;;2.15;1.50;;;23.00;58.10;;;;;;5133445;27;20274;-79
2023/06/21 02:16:31;;;;;;;2.17;1.80;;;23.00;58.70;;;;;;5132950;27;20250;-79
2023/06/21 02:18:58;;;;;;;4.00;1.75;;;23.00;58.10;;;;;;5133908;27;20349;-79
2023/06/21 02:21:26;;;;;;;4.25;1.77;;;23.00;58.10;;;;;;5133420;27;20310;-79
2023/06/21 02:23:53;;;;;;;3.03;1.80;;;23.00;58.10;;;;;;5133274;27;20220;-79
2023/06/21 02:26:20;;;;;;;2.97;1.83;;;23.00;58.10;;;;;;5133512;27;20306;-79
2023/06/21 02:28:47;;;;;;;4.32;2.03;;;23.00;58.10;;;;;;5132953;27;20609;-79
2023/06/21 02:31:14;;;;;;;4.47;2.08;;;23.00;58.10;;;;;;5133096;27;20298;-79
2023/06/21 02:33:45;;;;;;;3.45;2.00;;;23.00;58.10;;;;;;5133679;27;20275;-79
2023/06/21 02:36:11;;;;;;;3.28;1.58;;;23.00;58.10;;;;;;5133422;27;20208;-79
2023/06/21 02:38:40;;;;;;;3.13;1.90;;;22.90;58.00;;;;;;5133428;27;20184;-79
2023/06/21 02:41:07;;;;;;;2.33;1.75;;;23.00;58.10;;;;;;5133312;27;20576;-79
2023/06/21 02:43:34;;;;;;;2.97;2.20;;;22.90;58.00;;;;;;5133179;27;20216;-79
2023/06/21 02:46:02;;;;;;;3.53;2.10;;;22.90;58.00;;;;;;5133602;27;20631;-79
2023/06/21 02:48:28;;;;;;;3.55;2.17;;;22.90;58.00;;;;;;5132354;27;20283;-79
2023/06/21 02:50:55;;;;;;;2.25;1.80;;;22.90;58.00;;;;;;5133188;27;20295;-79
2023/06/21 02:53:22;;;;;;;2.75;2.10;;;22.90;58.00;;;;;;5133108;27;20275;-80
2023/06/21 02:55:50;;;;;;;3.15;2.00;;;22.90;58.00;;;;;;5132608;27;20299;-79
2023/06/21 02:58:17;;;;;;;2.97;2.15;;;22.90;58.00;;;;;;5132636;27;20252;-80
2023/06/21 03:00:44;;;;;;;3.03;2.10;;;22.90;58.00;;;;;;5132981;27;20323;-79
2023/06/21 03:03:11;;;;;;;4.18;2.17;;;22.90;58.00;;;;;;5133367;27;20276;-79
2023/06/21 03:05:38;;;;;;;3.03;2.20;;;22.90;58.00;;;;;;5133141;28;20307;-79
2023/06/21 03:08:07;;;;;;;2.33;1.90;;;22.90;58.00;;;;;;5133016;28;20234;-79
2023/06/21 03:10:34;;;;;;;3.30;2.17;;;22.90;58.00;;;;;;5133062;28;20222;-79
2023/06/21 03:13:03;;;;;;;4.20;1.92;;;22.90;58.00;;;;;;5132340;28;20196;-79
2023/06/21 03:15:30;;;;;;;2.28;1.75;;;22.90;58.00;;;;;;5133090;28;20216;-79
2023/06/21 03:17:56;;;;;;;2.75;1.77;;;22.80;57.90;;;;;;5132986;28;20211;-79
2023/06/21 03:20:26;;;;;;;4.20;2.17;;;22.90;58.00;;;;;;5132751;28;20310;-79
2023/06/21 03:22:53;;;;;;;2.25;2.00;;;22.90;58.00;;;;;;5132783;28;20195;-79
2023/06/21 03:25:20;;;;;;;2.65;2.05;;;22.80;58.60;;;;;;5132870;28;20302;-79
2023/06/21 03:27:47;;;;;;;5.38;2.50;;;22.80;57.90;;;;;;5133022;28;20288;-79
2023/06/21 03:30:15;;;;;;;3.28;2.25;;;22.80;57.90;;;;;;5132868;28;20188;-79
2023/06/21 03:32:46;;;;;;;3.33;2.33;;;22.80;57.90;;;;;;5132711;28;20279;-79
2023/06/21 03:35:14;;;;;;;3.20;2.00;;;22.80;57.90;;;;;;5132821;28;20214;-79
2023/06/21 03:37:41;;;;;;;3.35;2.40;;;22.80;58.50;;;;;;5132376;28;20272;-79
2023/06/21 03:40:11;;;;;;;2.63;2.17;;;22.80;57.30;;;;;;5132432;28;20631;-79
2023/06/21 03:42:39;;;;;;;2.55;2.35;;;22.80;57.90;;;;;;5131610;28;20188;-79
2023/06/21 03:45:07;;;;;;;3.95;2.38;;;22.80;57.90;;;;;;5132519;28;20197;-79
2023/06/21 03:47:36;;;;;;;5.85;2.53;;;22.80;57.90;;;;;;5132355;28;20180;-79
2023/06/21 03:50:03;;;;;;;3.10;2.40;;;22.80;57.90;;;;;;5131573;28;20300;-79
2023/06/21 03:52:30;;;;;;;2.63;2.35;;;22.80;57.90;;;;;;5132432;28;20192;-79
2023/06/21 03:54:57;;;;;;;3.80;2.40;;;22.80;57.90;;;;;;5132738;28;20279;-79
2023/06/21 03:57:24;;;;;;;3.90;2.50;;;22.80;57.90;;;;;;5132533;28;20303;-79
2023/06/21 03:59:51;;;;;;;2.50;2.03;;;22.80;57.90;;;;;;5132416;28;20645;-79
2023/06/21 04:02:20;;;;;;;2.85;2.38;;;22.80;57.90;;;;;;5132735;28;20269;-79
2023/06/21 04:04:48;;;;;;;5.40;2.40;;;22.80;58.60;;;;;;5132396;28;20188;-79
2023/06/21 04:07:17;;;;;;;4.35;2.80;;;22.80;57.90;;;;;;5132576;28;20213;-79
2023/06/21 04:09:44;;;;;;;2.20;2.00;;;22.80;57.90;;;;;;5135825;27;20253;-79
2023/06/21 04:12:11;;;;;;;2.83;2.33;;;22.80;57.90;;;;;;5136084;27;20219;-79
2023/06/21 04:14:38;;;;;;;2.83;2.58;;;22.70;57.80;;;;;;5136233;27;20271;-79
2023/06/21 04:17:06;;;;;;;3.55;2.58;;;22.70;57.80;;;;;;5136249;27;20239;-79
2023/06/21 04:19:33;;;;;;;4.60;2.60;;;22.70;57.80;;;;;;5135676;27;20638;-79
2023/06/21 04:22:01;;;;;;;3.70;2.28;;;22.70;57.80;;;;;;5135910;27;20234;-79
2023/06/21 04:24:28;;;;;;;4.32;2.08;;;22.70;57.80;;;;;;5135602;27;20230;-79
2023/06/21 04:26:58;;;;;;;2.78;2.45;;;22.70;57.80;;;;;;5136719;27;20298;-79
2023/06/21 04:29:25;;;;;;;3.58;2.30;;;22.70;57.80;;;;;;5135826;27;20188;-79
2023/06/21 04:31:53;;;;;;;3.92;2.35;;;22.70;57.90;;;;;;5135535;27;20303;-80
2023/06/21 04:34:20;;;;;;;4.82;2.80;;;22.70;57.80;;;;;;5134976;27;20188;-79
2023/06/21 04:36:47;;;;;;;5.47;2.55;;;22.70;57.90;;;;;;5135634;27;20311;-79
2023/06/21 04:39:16;;;;;;;3.13;2.50;;;22.70;57.80;;;;;;5135805;27;20191;-79
2023/06/21 04:41:45;;;;;;;4.30;2.80;;;22.70;57.80;;;;;;5135692;27;20315;-79
2023/06/21 04:44:12;;;;;;;3.00;2.40;;;22.70;57.90;;;;;;5134728;27;20188;-79
2023/06/21 04:46:39;;;;;;;4.63;3.00;;;22.70;57.80;;;;;;5135708;27;20301;-79
2023/06/21 04:49:07;;;;;;;2.92;2.30;;;22.70;57.80;;;;;;5135463;27;20267;-79
2023/06/21 04:51:34;;;;;;;3.33;2.10;;;22.70;57.90;;;;;;5134448;27;20701;-79
2023/06/21 04:54:01;;;;;;;3.47;2.60;;;22.70;57.90;;;;;;5135484;27;20208;-79
2023/06/21 04:56:29;;;;;;;3.47;2.40;;;22.70;57.90;;;;;;5135345;27;20209;-80
2023/06/21 04:58:56;;;;;;;3.55;2.22;;;22.70;57.90;;;;;;5134896;27;20720;-79
2023/06/21 05:01:23;;;;;;;5.75;2.92;;;22.70;58.00;;;;;;5135076;27;20239;-79
2023/06/21 05:03:52;;;;;;;2.65;2.20;;;22.70;58.00;;;;;;5135244;27;20275;-79
2023/06/21 05:06:22;;;;;;;3.72;2.35;;;22.70;57.90;;;;;;5135349;27;20215;-79
2023/06/21 05:08:48;;;;;;;5.70;2.88;;;22.70;58.00;;;;;;5134113;27;20189;-79
2023/06/21 05:11:15;;;;;;;3.90;2.70;;;22.70;58.00;;;;;;5134975;27;20780;-79
2023/06/21 05:13:44;;;;;;;3.72;2.55;;;22.70;58.10;;;;;;5134256;27;20263;-79
2023/06/21 05:16:10;;;;;;;3.17;2.50;;;22.70;58.00;;;;;;5134753;27;20208;-79
2023/06/21 05:18:38;;;;;;;5.07;2.65;;;22.70;58.00;;;;;;5135012;27;20224;-79
2023/06/21 05:21:05;;;;;;;5.57;2.50;;;22.70;58.10;;;;;;5134072;27;20232;-79
2023/06/21 05:23:34;;;;;;;3.88;2.60;;;22.70;58.10;;;;;;5133766;27;20303;-79
2023/06/21 05:26:01;;;;;;;3.88;2.75;;;22.70;58.10;;;;;;5134471;27;20764;-79
2023/06/21 05:28:28;;;;;;;3.22;2.60;;;22.70;58.10;;;;;;5134744;27;20267;-79
2023/06/21 05:30:56;;;;;;;4.82;2.50;;;22.60;58.00;;;;;;5134589;27;20307;-79
2023/06/21 05:33:23;;;;;;;5.22;3.15;;;22.70;58.10;;;;;;5134639;27;20271;-79
2023/06/21 05:35:50;;;;;;;3.80;2.50;;;22.70;58.10;;;;;;5134442;27;20295;-79
2023/06/21 05:38:17;;;;;;;4.70;2.53;;;22.60;58.10;;;;;;5133775;27;20263;-79
2023/06/21 05:40:44;;;;;;;3.70;2.70;;;22.70;58.20;;;;;;5134294;27;20218;-79
2023/06/21 05:43:10;;;;;;;4.35;2.63;;;22.70;58.20;;;;;;5134526;27;20216;-79
2023/06/21 05:45:38;;;;;;;3.83;3.20;;;22.70;58.20;;;;;;5134320;27;20299;-79
2023/06/21 05:48:07;;;;;;;3.50;2.30;;;22.70;58.30;;;;;;5134141;27;20195;-78
2023/06/21 05:50:33;;;;;;;3.60;2.53;;;22.60;58.10;;;;;;5134249;27;20299;-79
2023/06/21 05:53:00;;;;;;;4.88;2.80;;;22.70;58.20;;;;;;5133957;27;20271;-79
2023/06/21 05:55:27;;;;;;;4.28;2.40;;;22.70;58.20;;;;;;5134274;27;20188;-79
2023/06/21 05:57:54;;;;;;;4.28;2.63;;;22.70;58.30;;;;;;5133164;27;20191;-79
2023/06/21 06:00:21;;;;;;;3.85;2.55;;;22.70;58.30;;;;;;5133756;27;20224;-79
2023/06/21 06:02:48;;;;;;;4.25;2.58;;;22.60;58.20;;;;;;5123197;27;20209;-79
2023/06/21 06:05:18;;;;;;;4.25;2.63;;;22.70;58.30;;;;;;5133552;27;20292;-79
2023/06/21 06:07:45;;;;;;;3.40;2.70;;;22.70;58.30;;;;;;5134135;27;20242;-79
2023/06/21 06:10:12;;;;;;;3.92;2.90;;;22.70;58.90;;;;;;5116852;27;20193;-79
2023/06/21 06:12:39;;;;;;;2.90;2.60;;;22.70;58.30;;;;;;5119938;27;20227;-79
2023/06/21 06:15:07;;;;;;;3.78;2.75;;;22.70;58.30;;;;;;5132066;27;20237;-79
2023/06/21 06:17:34;;;;;;;5.28;2.35;;;22.70;58.30;;;;;;5123035;27;20768;-79
2023/06/21 06:20:05;;;;;;;4.28;2.80;;;22.70;58.30;;;;;;5133641;27;20192;-79
2023/06/21 06:22:34;;;;;;;4.35;2.60;;;22.70;58.30;;;;;;5118560;27;20239;-78
2023/06/21 06:25:00;;;;;;;4.18;2.53;;;22.70;58.30;;;;;;5112686;28;20773;-79
2023/06/21 06:27:27;;;;;;;3.00;2.40;;;22.70;58.30;;;;;;5114100;27;20264;-78
2023/06/21 06:29:54;;;;;;;3.25;2.50;;;22.70;58.30;;;;;;5113905;27;20655;-78
2023/06/21 06:32:22;;;;;;;3.45;2.50;;;22.70;58.30;;;;;;5117662;27;20302;-78
2023/06/21 06:34:49;;;;;;;3.90;2.80;;;22.80;58.40;;;;;;5122990;27;20242;-78
2023/06/21 06:37:16;;;;;;;4.43;2.70;;;22.80;58.40;;;;;;5112796;28;20720;-79
2023/06/21 06:39:44;;;;;;;3.28;2.53;;;22.80;58.40;;;;;;5112811;28;20228;-79
2023/06/21 06:42:11;;;;;;;3.17;2.47;;;22.80;58.40;;;;;;5120108;27;20749;-77
2023/06/21 06:44:39;;;;;;;3.95;2.72;;;22.80;59.00;;;;;;5115657;27;20201;-82
2023/06/21 06:47:06;;;;;;;4.82;3.05;;;22.90;58.30;;;;;;5128506;27;20697;-79
2023/06/21 06:49:33;;;;;;;4.03;2.63;;;23.00;58.20;;;;;;5129626;27;20276;-79
2023/06/21 06:52:00;;;;;;;3.85;2.63;;;23.00;58.20;;;;;;5128219;27;20256;-81
2023/06/21 06:54:28;;;;;;;3.47;2.50;;;23.10;58.20;;;;;;5129601;27;20280;-80
2023/06/21 06:56:56;;;;;;;4.75;2.60;;;23.10;58.10;;;;;;5127109;27;20304;-80
2023/06/21 06:59:23;;;;;;;5.20;2.45;;;23.20;58.20;;;;;;5123601;27;20620;-80
2023/06/21 07:01:50;;;;;;;3.78;2.78;;;23.20;58.20;;;;;;5127024;27;20230;-81
2023/06/21 07:04:17;;;;;;;4.57;2.67;;;23.30;58.30;;;;;;5128946;27;20197;-79
2023/06/21 07:06:44;;;;;;;6.85;3.08;;;23.30;58.30;;;;;;5129540;28;20222;-82
2023/06/21 07:09:11;;;;;;;3.88;2.50;;;23.40;58.20;;;;;;5129883;28;20216;-80
2023/06/21 07:11:39;;;;;;;4.07;2.60;;;23.40;58.10;;;;;;5129043;28;20255;-82
2023/06/21 07:14:07;;;;;;;5.05;2.47;;;23.40;58.00;;;;;;5129414;28;20204;-81
2023/06/21 07:16:36;;;;;;;3.10;2.70;;;23.50;58.10;;;;;;5129245;28;20223;-80
2023/06/21 07:19:03;;;;;;;5.07;2.47;;;23.50;58.00;;;;;;5123041;27;20197;-79
2023/06/21 07:21:30;;;;;;;2.58;2.08;;;23.60;58.00;;;;;;5121120;27;20228;-81
2023/06/21 07:23:57;;;;;;;3.38;2.20;;;23.60;58.00;;;;;;5126735;28;20760;-78
2023/06/21 07:26:24;;;;;;;2.63;2.38;;;23.60;57.90;;;;;;5123059;28;20316;-79
2023/06/21 07:28:52;;;;;;;3.97;2.42;;;23.70;57.90;;;;;;5112353;27;20677;-80
2023/06/21 07:31:20;;;;;;;5.22;2.40;;;23.70;57.90;;;;;;5109004;28;20286;-80
2023/06/21 07:33:49;;;;;;;5.13;2.20;;;23.70;57.80;;;;;;5113929;27;20288;-79
2023/06/21 07:36:16;;;;;;;4.05;2.35;;;23.80;57.90;;;;;;5121957;28;20285;-84
2023/06/21 07:38:46;;;;;;;6.10;2.25;;;23.80;57.80;;;;;;5107891;28;20650;-80
2023/06/21 07:41:13;;;;;;;2.60;2.22;;;23.80;57.90;;;;;;5132008;27;20272;-79
2023/06/21 07:43:40;;;;;;;4.10;2.22;;;23.80;57.90;;;;;;5129743;27;20602;-80
2023/06/21 07:46:08;;;;;;;4.05;2.53;;;23.80;57.90;;;;;;5117914;27;20221;-79
2023/06/21 07:48:36;;;;;;;3.17;2.40;;;23.80;57.90;;;;;;5130584;27;20206;-80
2023/06/21 07:51:03;;;;;;;3.83;2.40;;;23.80;57.80;;;;;;5123334;27;20224;-79
2023/06/21 07:53:31;;;;;;;3.08;2.25;;;23.80;57.90;;;;;;5123931;27;20228;-79
2023/06/21 07:55:57;;;;;;;3.70;2.15;;;23.80;57.80;;;;;;5131662;27;20224;-79
2023/06/21 07:58:24;;;;;;;2.97;2.40;;;23.80;57.80;;;;;;5132009;27;20276;-80
2023/06/21 08:00:52;;;;;;;4.15;2.63;;;23.80;57.80;;;;;;5130327;27;20702;-78
2023/06/21 08:03:19;;;;;;;3.53;2.35;;;23.90;57.90;;;;;;5123434;27;20327;-79
2023/06/21 08:05:47;;;;;;;4.18;2.40;;;23.90;57.80;;;;;;5131173;27;20244;-79
2023/06/21 08:08:17;;;;;;;4.07;2.40;;;23.90;57.80;;;;;;5131674;27;20185;-79
2023/06/21 08:10:44;;;;;;;4.70;2.40;;;24.00;57.80;;;;;;5124396;27;20511;-79
2023/06/21 08:13:11;;;;;;;3.50;2.28;;;23.90;57.70;;;;;;5131126;27;20227;-79
2023/06/21 08:15:38;;;;;;;3.90;2.72;;;23.90;57.70;;;;;;5128358;27;20206;-78
2023/06/21 08:18:07;;;;;;;3.50;2.53;;;24.00;57.80;;;;;;5123221;27;20587;-79
2023/06/21 08:20:34;;;;;;;3.50;2.40;;;24.00;57.70;;;;;;5130915;27;20189;-78
2023/06/21 08:23:02;;;;;;;5.90;2.30;;;24.00;57.70;;;;;;5124946;27;20329;-79
2023/06/21 08:25:29;;;;;;;5.80;2.47;;;24.00;57.70;;;;;;5111170;28;20220;-79
2023/06/21 08:27:57;;;;;;;4.15;2.30;;;24.00;57.60;;;;;;5112339;27;20204;-79
2023/06/21 08:30:24;;;;;;;4.50;2.30;;;24.00;57.60;;;;;;5129188;27;20210;-81
2023/06/21 08:32:51;;;;;;;5.50;2.47;;;24.00;57.60;;;;;;5123781;27;20217;-79
2023/06/21 08:35:18;;;;;;;3.92;2.65;;;24.00;57.70;;;;;;5131005;27;20184;-78
2023/06/21 08:37:55;;;;;;;3.00;2.70;;;24.00;57.70;;;;;;5122552;27;20303;-78
2023/06/21 08:40:25;;;;;;;3.15;2.38;;;24.00;57.60;;;;;;5131620;27;20692;-78
2023/06/21 08:42:52;;;;;;;4.68;2.83;;;24.00;57.60;;;;;;5130257;27;20588;-79
2023/06/21 08:45:20;;;;;;;5.63;2.90;;;24.00;57.50;;;;;;5128922;27;20296;-78
2023/06/21 08:47:47;;;;;;;3.72;2.55;;;24.00;57.50;;;;;;5129885;27;20716;-78
2023/06/21 08:50:17;;;;;;;3.20;2.47;;;24.00;57.50;;;;;;5131487;27;20193;-79
2023/06/21 08:52:46;;;;;;;3.08;2.35;;;24.00;57.40;;;;;;5129491;27;20573;-78
2023/06/21 08:55:15;;;;;;;3.47;2.50;;;24.00;57.40;;;;;;5126178;27;20279;-78
2023/06/21 08:57:49;;;;;;;4.00;2.75;;;24.10;57.60;;;;;;5126583;27;20216;-78
2023/06/21 09:00:22;;;;;;;4.53;2.50;;;24.10;57.60;;;;;;5116624;27;20288;-79
2023/06/21 09:02:57;;;;;;;2.85;2.45;;;24.10;57.50;;;;;;5119418;27;20238;-78
2023/06/21 09:05:29;;;;;;;4.22;2.40;;;24.10;57.40;;;;;;5130953;27;20195;-78
2023/06/21 09:07:58;;;;;;;3.03;2.45;;;24.10;57.40;;;;;;5128935;27;20643;-78
2023/06/21 09:10:27;;;;;;;4.50;2.63;;;24.10;57.40;;;;;;5129540;27;20204;-80
2023/06/21 09:12:57;;;;;;;5.00;2.53;;;24.10;57.30;;;;;;5129882;27;20760;-79
2023/06/21 09:15:24;;;;;;;3.20;2.60;;;24.20;57.30;;;;;;5127813;27;20204;-79
2023/06/21 09:17:53;;;;;;;3.45;2.58;;;24.20;57.30;;;;;;5126796;27;20224;-78
2023/06/21 09:20:20;;;;;;;7.50;2.30;;;24.20;57.20;;;;;;5113366;27;20205;-78
2023/06/21 09:22:47;;;;;;;6.20;2.67;;;24.20;57.20;;;;;;5118601;27;20224;-78
2023/06/21 09:25:14;;;;;;;3.83;2.53;;;24.20;57.10;;;;;;5129707;27;20279;-78
2023/06/21 09:27:41;;;;;;;3.97;2.75;;;24.20;57.10;;;;;;5129637;27;20312;-79
2023/06/21 09:30:10;;;;;;;4.93;2.40;;;24.20;57.70;;;;;;5117284;27;20197;-79
2023/06/21 09:32:37;;;;;;;4.43;2.80;;;24.20;57.10;;;;;;5127652;27;20725;-79
2023/06/21 09:35:05;;;;;;;5.47;2.50;;;24.20;57.10;;;;;;5129827;27;20564;-79
2023/06/21 09:37:34;;;;;;;4.32;2.05;;;24.30;57.10;;;;;;5073807;27;20215;-78
2023/06/21 09:40:01;;;;;;;4.13;2.47;;;24.30;57.70;;;;;;5127759;27;20199;-78
2023/06/21 09:42:28;;;;;;;5.50;2.78;;;24.30;57.10;;;;;;5123197;27;20594;-79
2023/06/21 09:44:56;;;;;;;3.55;2.75;;;24.30;57.00;;;;;;5106427;28;20189;-80
2023/06/21 09:47:30;;;;;;;6.82;2.63;;;24.30;56.90;;;;;;5107596;28;20212;-79
2023/06/21 09:49:57;;;;;;;3.88;2.50;;;24.40;56.90;;;;;;5109440;27;20185;-79
2023/06/21 09:52:25;;;;;;;4.82;2.83;;;24.40;57.00;;;;;;5113837;27;20216;-78
2023/06/21 09:54:52;;;;;;;4.38;2.60;;;24.40;56.90;;;;;;5122960;27;20189;-79
2023/06/21 09:57:18;;;;;;;5.13;2.72;;;24.40;56.90;;;;;;5112378;27;20291;-78
2023/06/21 09:59:49;;;;;;;3.20;2.45;;;24.40;56.90;;;;;;5127369;27;20639;-80
2023/06/21 10:02:16;;;;;;;5.47;2.67;;;24.40;56.90;;;;;;5127289;27;20221;-79
2023/06/21 10:04:46;;;;;;;4.10;3.00;;;24.50;56.80;;;;;;5128099;27;20193;-78
2023/06/21 10:07:14;;;;;;;2.92;2.60;;;24.50;56.80;;;;;;5128522;27;20216;-79
2023/06/21 10:09:42;;;;;;;3.10;2.60;;;24.50;56.70;;;;;;5124933;27;20592;-79
2023/06/21 10:12:11;;;;;;;3.70;2.80;;;24.50;56.60;;;;;;5122245;27;20216;-80
2023/06/21 10:14:40;;;;;;;4.28;3.10;;;24.50;56.60;;;;;;5120786;27;20204;-78
2023/06/21 10:17:08;;;;;;;4.90;3.00;;;24.50;56.70;;;;;;5129743;27;20224;-79
2023/06/21 10:19:36;;;;;;;5.35;3.17;;;24.50;56.60;;;;;;5129480;27;20196;-79
2023/06/21 10:22:09;;;;;;;3.28;2.63;;;24.50;57.20;;;;;;5129427;27;20220;-79
2023/06/21 10:24:40;;;;;;;3.33;2.60;;;24.50;56.60;;;;;;5105696;28;20315;-79
2023/06/21 10:27:08;;;;;;;3.72;2.60;;;24.50;56.50;;;;;;5106687;28;20215;-79
2023/06/21 10:29:35;;;;;;;5.18;2.70;;;24.50;56.40;;;;;;5099837;28;20204;-79
2023/06/21 10:32:06;;;;;;;3.78;2.70;;;24.50;56.40;;;;;;5107705;28;20726;-79
2023/06/21 10:34:49;;;;;;;4.03;2.78;;;24.50;56.40;;;;;;5110597;28;20289;-79
2023/06/21 10:37:38;;;;;;;6.22;2.95;;;24.40;56.30;;;;;;5103979;28;20303;-79
2023/06/21 10:40:07;;;;;;;3.58;2.67;;;24.50;56.30;;;;;;5109351;27;20201;-79
2023/06/21 10:42:34;;;;;;;4.53;2.70;;;24.40;56.30;;;;;;5102379;28;20255;-79
2023/06/21 10:45:03;;;;;;;3.72;2.70;;;24.40;56.40;;;;;;5101022;28;20280;-79
2023/06/21 10:47:32;;;;;;;4.40;2.72;;;24.40;56.40;;;;;;5102477;28;20231;-79
2023/06/21 10:50:01;;;;;;;8.00;2.75;;;24.40;56.40;;;;;;5106219;28;20273;-79
2023/06/21 10:52:31;;;;;;;4.43;2.55;;;24.40;56.30;;;;;;5105964;28;20315;-79
2023/06/21 10:55:01;;;;;;;3.95;2.80;;;24.40;56.30;;;;;;5107634;28;20193;-78
2023/06/21 10:57:29;;;;;;;3.83;2.70;;;24.40;56.30;;;;;;5109395;28;20308;-79
2023/06/21 10:59:57;;;;;;;4.53;2.70;;;24.40;56.30;;;;;;5107848;28;20197;-79
2023/06/21 11:02:24;;;;;;;3.10;2.80;;;24.40;56.20;;;;;;5105947;28;20990;-79
2023/06/21 11:05:16;;;;;;;4.13;2.50;;;24.40;56.20;;;;;;5108583;28;20239;-79
2023/06/21 11:07:51;;;;;;;4.65;2.80;;;24.40;56.20;;;;;;5103034;28;20320;-79
2023/06/21 11:10:22;;;;;;;4.53;2.75;;;24.40;56.30;;;;;;5108488;28;20644;-80
2023/06/21 11:12:54;;;;;;;8.23;2.67;;;24.40;56.30;;;;;;5105995;28;20213;-78
2023/06/21 11:15:22;;;;;;;9.18;2.70;;;24.40;56.40;;;;;;5108259;28;20193;-80
2023/06/21 11:17:56;;;;;;;3.80;3.08;;;24.40;56.30;;;;;;5107092;28;20303;-79
2023/06/21 11:20:24;;;;;;;3.90;2.78;;;24.40;56.30;;;;;;5112588;28;20665;-80
2023/06/21 11:22:59;;;;;;;3.50;2.65;;;24.50;56.30;;;;;;5114038;27;20312;-79
2023/06/21 11:25:28;;;;;;;3.58;2.80;;;24.40;56.20;;;;;;5133103;27;20717;-79
2023/06/21 11:28:26;;;;;;;3.40;3.10;;;24.40;56.20;;;;;;5130462;27;20212;-79
2023/06/21 11:31:12;;;;;;;4.28;2.90;;;24.40;56.10;;;;;;5130159;27;20249;-80
2023/06/21 11:33:53;;;;;;;4.13;2.78;;;24.40;56.10;;;;;;5131725;27;20184;-80
2023/06/21 11:36:26;;;;;;;4.90;3.25;;;24.40;56.10;;;;;;5132622;27;20223;-80
2023/06/21 11:38:59;;;;;;;4.80;2.83;;;24.50;56.20;;;;;;5132224;27;20220;-79
2023/06/21 11:41:59;;;;;;;8.38;3.00;;;24.50;56.20;;;;;;5131375;27;20312;-79
2023/06/21 11:44:28;;;;;;;5.38;2.85;;;24.50;56.20;;;;;;5126517;27;20769;-79
2023/06/21 11:47:17;;;;;;;4.55;2.67;;;24.40;56.10;;;;;;5132181;27;20220;-78
2023/06/21 11:49:50;;;;;;;3.65;2.65;;;24.50;56.20;;;;;;5117415;27;20284;-79
2023/06/21 11:52:23;;;;;;;3.35;2.83;;;24.50;56.20;;;;;;5132296;27;20296;-82
2023/06/21 11:54:50;;;;;;;7.63;2.90;;;24.50;56.20;;;;;;5131616;27;20674;-80
2023/06/21 11:57:18;;;;;;;3.63;3.05;;;24.50;56.20;;;;;;5129442;27;20216;-83
2023/06/21 11:59:45;;;;;;;3.78;2.80;;;24.50;56.20;;;;;;5132017;27;20283;-81
2023/06/21 12:02:14;;;;;;;3.42;2.63;;;24.50;56.20;;;;;;5123576;27;20581;-79
2023/06/21 12:04:42;;;;;;;3.10;2.60;;;24.50;56.20;;;;;;5130669;27;20209;-79
2023/06/21 12:07:12;;;;;;;8.82;2.67;;;24.50;56.80;;;;;;5116122;27;20876;-80
2023/06/21 12:09:40;;;;;;;3.92;3.22;;;24.50;56.20;;;;;;5126171;27;20207;-79
2023/06/21 12:12:08;;;;;;;14.20;3.13;;;24.50;56.20;;;;;;5120381;27;20720;-78
2023/06/21 12:14:39;;;;;;;6.75;3.28;;;24.60;56.30;;;;;;5093706;28;20197;-78
2023/06/21 12:17:07;;;;;;;7.72;3.22;;;24.60;56.30;;;;;;5115882;27;20231;-80
2023/06/21 12:19:37;;;;;;;7.15;3.55;;;24.60;56.30;;;;;;5114048;27;20315;-78
2023/06/21 12:22:07;;;;;;;4.20;3.40;;;24.60;56.30;;;;;;5113597;27;20696;-77
2023/06/21 12:24:38;;;;;;;4.93;2.67;;;24.60;56.30;;;;;;5132097;27;20232;-77
2023/06/21 12:27:13;;;;;;;4.63;2.92;;;24.60;56.20;;;;;;5055925;27;20980;-81
2023/06/21 12:29:57;;;;;;;9.25;3.30;;;24.60;56.30;;;;;;5082499;28;20199;-83
2023/06/21 12:32:30;;;;;;;4.45;2.80;;;24.60;56.40;;;;;;5123504;27;20243;-80
2023/06/21 12:35:03;;;;;;;4.25;3.00;;;24.50;56.30;;;;;;5081069;27;20780;-81
2023/06/21 12:37:31;;;;;;;6.15;2.97;;;24.50;56.30;;;;;;5126110;27;20221;-81
2023/06/21 12:40:03;;;;;;;5.57;3.30;;;24.60;56.30;;;;;;5124512;27;20191;-81
2023/06/21 12:42:35;;;;;;;6.05;3.10;;;24.60;56.30;;;;;;5113118;27;20248;-81
2023/06/21 12:45:09;;;;;;;3.55;2.83;;;24.60;56.30;;;;;;5122429;27;20884;-79
2023/06/21 12:47:39;;;;;;;5.88;2.85;;;24.60;56.80;;;;;;5117382;27;20701;-82
2023/06/21 12:50:09;;;;;;;8.30;3.22;;;24.60;56.10;;;;;;5090974;27;20318;-82
2023/06/21 12:52:36;;;;;;;9.88;3.95;;;24.60;56.10;;;;;;5123385;27;20260;-85
2023/06/21 12:55:06;;;;;;;5.03;2.80;;;24.60;56.10;;;;;;5124236;27;20200;-89
2023/06/21 12:57:36;;;;;;;5.35;3.55;;;24.50;56.20;;;;;;5128187;27;20312;-82